createdAt,value
2023-04-19T00:01:01.618Z,9.77
2023-04-19T00:03:30.598Z,9.70
2023-04-19T00:05:59.333Z,10.23
2023-04-19T00:08:26.367Z,11.05
2023-04-19T00:10:52.989Z,10.30
2023-04-19T00:13:19.513Z,11.60
2023-04-19T00:15:45.985Z,11.57
2023-04-19T00:18:12.460Z,10.82
2023-04-19T00:20:39.244Z,11.90
2023-04-19T00:23:05.758Z,13.27
2023-04-19T00:25:34.566Z,11.93
2023-04-19T00:28:01.116Z,13.05
2023-04-19T00:30:27.540Z,12.98
2023-04-19T00:32:54.078Z,13.18
2023-04-19T00:35:20.695Z,13.75
2023-04-19T00:37:47.089Z,12.25
2023-04-19T00:40:13.527Z,12.38
2023-04-19T00:42:40.031Z,11.65
2023-04-19T00:45:07.104Z,12.27
2023-04-19T00:47:34.120Z,12.68
2023-04-19T00:50:00.634Z,12.75
2023-04-19T00:52:27.133Z,13.75
2023-04-19T00:54:53.831Z,13.45
2023-04-19T00:57:20.526Z,13.27
2023-04-19T00:59:47.572Z,12.77
2023-04-19T01:02:14.439Z,12.75
2023-04-19T01:04:41.157Z,14.32
2023-04-19T01:07:07.571Z,13.60
2023-04-19T01:09:34.841Z,13.35
2023-04-19T01:12:02.249Z,15.70
2023-04-19T01:14:28.767Z,15.45
2023-04-19T01:16:55.205Z,15.10
2023-04-19T01:19:21.676Z,16.23
2023-04-19T01:21:48.702Z,13.48
2023-04-19T01:24:15.300Z,13.35
2023-04-19T01:26:41.992Z,12.88
2023-04-19T01:29:08.480Z,14.68
2023-04-19T01:31:35.230Z,13.32
2023-04-19T01:34:01.836Z,15.60
2023-04-19T01:36:28.430Z,13.88
2023-04-19T01:38:55.884Z,11.90
2023-04-19T01:41:26.728Z,13.85
2023-04-19T01:43:53.283Z,18.27
2023-04-19T01:46:19.770Z,14.93
2023-04-19T01:48:46.212Z,16.80
2023-04-19T01:51:12.652Z,16.45
2023-04-19T01:53:39.082Z,16.02
2023-04-19T01:56:05.818Z,17.38
2023-04-19T01:58:32.359Z,17.13
2023-04-19T02:00:58.812Z,15.20
2023-04-19T02:03:25.423Z,16.63
2023-04-19T02:05:52.021Z,15.13
2023-04-19T02:08:18.505Z,16.52
2023-04-19T02:10:44.892Z,14.15
2023-04-19T02:13:11.338Z,15.68
2023-04-19T02:15:37.864Z,15.63
2023-04-19T02:18:06.927Z,13.82
2023-04-19T02:20:33.542Z,15.07
2023-04-19T02:22:59.989Z,15.52
2023-04-19T02:25:26.444Z,14.80
2023-04-19T02:27:53.676Z,15.98
2023-04-19T02:30:20.415Z,14.73
2023-04-19T02:32:48.619Z,13.45
2023-04-19T02:35:15.108Z,15.10
2023-04-19T02:37:41.959Z,15.10
2023-04-19T02:40:08.996Z,13.45
2023-04-19T02:42:35.950Z,15.90
2023-04-19T02:45:02.355Z,14.93
2023-04-19T02:47:28.820Z,13.15
2023-04-19T02:49:55.556Z,13.25
2023-04-19T02:52:22.015Z,13.25
2023-04-19T02:54:48.533Z,15.68
2023-04-19T02:57:14.955Z,14.68
2023-04-19T02:59:41.359Z,13.00
2023-04-19T03:02:07.890Z,13.60
2023-04-19T03:04:34.537Z,13.80
2023-04-19T03:07:01.151Z,14.18
2023-04-19T03:09:27.562Z,12.07
2023-04-19T03:11:54.102Z,14.98
2023-04-19T03:14:20.659Z,13.07
2023-04-19T03:16:47.129Z,14.02
2023-04-19T03:19:13.558Z,14.23
2023-04-19T03:21:40.026Z,12.38
2023-04-19T03:24:06.620Z,12.85
2023-04-19T03:26:33.053Z,14.02
2023-04-19T03:28:59.519Z,12.05
2023-04-19T03:31:26.144Z,14.13
2023-04-19T03:33:52.658Z,13.15
2023-04-19T03:36:19.154Z,12.82
2023-04-19T03:38:45.639Z,13.05
2023-04-19T03:41:23.479Z,15.88
2023-04-19T03:43:50.062Z,13.60
2023-04-19T03:46:16.594Z,14.50
2023-04-19T03:48:43.128Z,14.00
2023-04-19T03:51:09.697Z,15.18
2023-04-19T03:53:36.804Z,15.13
2023-04-19T03:56:03.263Z,14.25
2023-04-19T03:58:29.722Z,12.98
2023-04-19T04:00:56.097Z,11.88
2023-04-19T04:03:22.835Z,14.48
2023-04-19T04:05:49.549Z,13.57
2023-04-19T04:08:16.046Z,13.43
2023-04-19T04:10:42.533Z,14.48
2023-04-19T04:13:08.968Z,12.38
2023-04-19T04:15:35.404Z,11.13
2023-04-19T04:18:02.015Z,12.85
2023-04-19T04:20:28.422Z,13.00
2023-04-19T04:22:54.856Z,14.52
2023-04-19T04:25:23.227Z,13.95
2023-04-19T04:27:52.925Z,14.65
2023-04-19T04:32:47.503Z,13.52
2023-04-19T04:35:14.194Z,15.05
2023-04-19T04:37:40.738Z,18.38
2023-04-19T04:40:10.738Z,14.55
2023-04-19T04:45:04.736Z,15.02
2023-04-19T04:47:32.464Z,14.40
2023-04-19T04:49:59.787Z,16.58
2023-04-19T04:52:26.336Z,15.45
2023-04-19T04:54:52.820Z,17.13
2023-04-19T04:57:19.312Z,14.63
2023-04-19T04:59:48.036Z,15.23
2023-04-19T05:02:15.068Z,15.00
2023-04-19T05:04:41.780Z,14.50
2023-04-19T05:07:08.674Z,15.40
2023-04-19T05:09:35.104Z,13.90
2023-04-19T05:12:02.232Z,18.38
2023-04-19T05:14:28.756Z,14.82
2023-04-19T05:16:55.228Z,15.93
2023-04-19T05:19:21.671Z,14.38
2023-04-19T05:21:48.371Z,15.80
2023-04-19T05:24:14.973Z,16.17
2023-04-19T05:26:41.848Z,15.15
2023-04-19T05:29:08.306Z,12.15
2023-04-19T05:31:34.785Z,15.32
2023-04-19T05:34:01.443Z,13.75
2023-04-19T05:36:28.146Z,12.68
2023-04-19T05:38:54.676Z,12.65
2023-04-19T05:41:21.078Z,11.32
2023-04-19T05:43:47.869Z,12.88
2023-04-19T05:46:14.447Z,15.63
2023-04-19T05:48:40.931Z,13.48
2023-04-19T05:51:07.421Z,12.73
2023-04-19T05:53:33.843Z,11.65
2023-04-19T05:56:00.349Z,11.18
2023-04-19T05:58:27.219Z,10.82
2023-04-19T06:00:53.712Z,12.93
2023-04-19T06:03:20.523Z,12.10
2023-04-19T06:05:47.703Z,10.88
2023-04-19T06:08:16.435Z,9.13
2023-04-19T06:10:54.092Z,9.93
2023-04-19T06:13:23.423Z,10.70
2023-04-19T06:15:49.957Z,9.45
2023-04-19T06:18:19.505Z,12.60
2023-04-19T06:20:46.783Z,11.38
2023-04-19T06:23:14.762Z,11.82
2023-04-19T06:25:41.368Z,11.65
2023-04-19T06:28:07.774Z,9.45
2023-04-19T06:30:34.174Z,9.95
2023-04-19T06:33:00.929Z,8.93
2023-04-19T06:35:27.429Z,12.55
2023-04-19T06:37:53.889Z,9.80
2023-04-19T06:40:20.452Z,11.55
2023-04-19T06:42:46.945Z,8.98
2023-04-19T06:45:14.960Z,9.40
2023-04-19T06:47:41.466Z,9.00
2023-04-19T06:50:08.462Z,9.18
2023-04-19T06:52:34.961Z,9.50
2023-04-19T06:55:01.592Z,8.07
2023-04-19T06:57:28.056Z,9.65
2023-04-19T06:59:58.268Z,8.50
2023-04-19T07:02:25.106Z,8.65
2023-04-19T07:04:51.779Z,9.15
2023-04-19T07:07:18.267Z,6.68
2023-04-19T07:09:44.736Z,5.63
2023-04-19T07:12:11.171Z,11.20
2023-04-19T07:14:37.654Z,7.53
2023-04-19T07:17:05.489Z,8.55
2023-04-19T07:19:32.091Z,6.78
2023-04-19T07:21:58.514Z,5.88
2023-04-19T07:24:27.836Z,5.90
2023-04-19T07:26:54.511Z,6.25
2023-04-19T07:29:20.967Z,7.43
2023-04-19T07:31:47.515Z,9.52
2023-04-19T07:34:14.281Z,6.85
2023-04-19T07:36:40.912Z,6.55
2023-04-19T07:39:07.411Z,6.43
2023-04-19T07:41:34.939Z,5.00
2023-04-19T07:44:02.529Z,4.38
2023-04-19T07:46:29.013Z,4.80
2023-04-19T07:48:55.446Z,5.22
2023-04-19T07:51:23.889Z,7.07
2023-04-19T07:53:50.632Z,7.88
2023-04-19T07:56:17.203Z,18.77
2023-04-19T07:58:44.007Z,5.63
2023-04-19T08:01:11.884Z,5.57
2023-04-19T08:03:38.538Z,6.13
2023-04-19T08:06:07.144Z,5.00
2023-04-19T08:08:34.232Z,5.50
2023-04-19T08:11:02.469Z,7.15
2023-04-19T08:13:29.850Z,4.35
2023-04-19T08:18:26.773Z,6.32
2023-04-19T08:20:53.857Z,6.18
2023-04-19T08:23:24.506Z,4.43
2023-04-19T08:25:54.260Z,4.90
2023-04-19T08:28:20.817Z,5.53
2023-04-19T08:30:47.351Z,5.00
2023-04-19T08:33:13.799Z,4.88
2023-04-19T08:35:41.588Z,11.18
2023-04-19T08:38:08.716Z,4.78
2023-04-19T08:40:35.591Z,5.32
2023-04-19T08:43:06.546Z,4.75
2023-04-19T08:45:33.360Z,5.82
2023-04-19T08:48:02.480Z,5.25
2023-04-19T08:53:12.154Z,5.80
2023-04-19T08:56:03.333Z,5.00
2023-04-19T09:01:07.445Z,5.50
2023-04-19T09:03:44.060Z,5.18
2023-04-19T09:06:18.147Z,4.95
2023-04-19T09:08:44.793Z,4.07
2023-04-19T09:11:11.254Z,5.28
2023-04-19T09:13:38.768Z,3.92
2023-04-19T09:16:07.782Z,5.55
2023-04-19T09:19:02.608Z,5.85
2023-04-19T09:21:39.194Z,5.75
2023-04-19T09:24:06.423Z,8.02
2023-04-19T09:26:34.200Z,3.63
2023-04-19T09:29:02.592Z,2.80
2023-04-19T09:31:48.012Z,3.92
2023-04-19T09:34:17.979Z,6.35
2023-04-19T09:36:44.764Z,7.38
2023-04-19T09:39:11.372Z,5.72
2023-04-19T09:41:54.175Z,5.28
2023-04-19T09:46:53.600Z,4.70
2023-04-19T09:49:33.502Z,3.03
2023-04-19T09:52:08.706Z,5.28
2023-04-19T09:54:35.192Z,3.65
2023-04-19T09:57:02.631Z,3.35
2023-04-19T09:59:29.051Z,5.07
2023-04-19T10:01:56.485Z,4.63
2023-04-19T10:04:33.541Z,5.15
2023-04-19T10:07:29.014Z,4.47
2023-04-19T10:10:05.062Z,6.90
2023-04-19T10:13:06.921Z,3.00
2023-04-19T10:15:33.755Z,4.28
2023-04-19T10:18:09.968Z,4.95
2023-04-19T10:20:39.389Z,2.72
2023-04-19T10:28:00.534Z,3.72
2023-04-19T10:30:27.208Z,4.35
2023-04-19T10:32:56.395Z,6.70
2023-04-19T10:38:06.976Z,2.83
2023-04-19T10:40:57.694Z,3.95
2023-04-19T10:43:25.196Z,4.63
2023-04-19T10:45:52.050Z,4.30
2023-04-19T10:48:33.041Z,4.03
2023-04-19T10:51:03.228Z,3.13
2023-04-19T10:53:48.819Z,3.60
2023-04-19T10:56:41.100Z,3.25
2023-04-19T10:59:11.517Z,3.95
2023-04-19T11:01:42.751Z,3.05
2023-04-19T11:04:11.018Z,3.05
2023-04-19T11:06:38.830Z,5.90
2023-04-19T11:09:10.666Z,3.15
2023-04-19T11:11:37.239Z,3.03
2023-04-19T11:14:04.309Z,3.85
2023-04-19T11:16:42.494Z,4.50
2023-04-19T11:19:19.809Z,4.05
2023-04-19T11:21:47.095Z,3.83
2023-04-19T11:24:16.237Z,4.28
2023-04-19T11:26:43.882Z,4.60
2023-04-19T11:29:10.797Z,4.30
2023-04-19T11:31:37.485Z,3.10
2023-04-19T11:34:04.065Z,4.15
2023-04-19T11:36:32.147Z,4.97
2023-04-19T11:38:58.645Z,3.42
2023-04-19T11:41:25.268Z,5.28
2023-04-19T11:43:52.021Z,2.85
2023-04-19T11:46:18.523Z,4.63
2023-04-19T11:48:53.180Z,4.00
2023-04-19T11:51:20.360Z,4.72
2023-04-19T11:53:47.045Z,6.97
2023-04-19T11:56:15.222Z,4.88
2023-04-19T11:58:45.008Z,4.88
2023-04-19T12:01:16.283Z,10.35
2023-04-19T12:03:53.705Z,3.08
2023-04-19T12:06:28.497Z,5.28
2023-04-19T12:08:56.046Z,3.92
2023-04-19T12:11:24.831Z,6.50
2023-04-19T12:14:13.676Z,4.75
2023-04-19T12:16:40.349Z,3.22
2023-04-19T12:19:14.434Z,5.40
2023-04-19T12:21:41.349Z,4.57
2023-04-19T12:24:07.853Z,5.38
2023-04-19T12:26:34.825Z,4.63
2023-04-19T12:29:03.268Z,8.35
2023-04-19T12:31:32.333Z,3.50
2023-04-19T12:33:58.815Z,4.28
2023-04-19T12:36:25.293Z,5.85
2023-04-19T12:38:51.864Z,5.88
2023-04-19T12:41:18.393Z,5.30
2023-04-19T12:43:44.804Z,3.88
2023-04-19T12:46:11.410Z,4.53
2023-04-19T12:48:37.884Z,6.35
2023-04-19T12:51:05.668Z,4.70
2023-04-19T12:53:32.084Z,6.65
2023-04-19T12:55:58.654Z,4.85
2023-04-19T12:58:25.153Z,5.47
2023-04-19T13:00:51.722Z,5.05
2023-04-19T13:03:18.259Z,5.93
2023-04-19T13:05:44.937Z,5.95
2023-04-19T13:08:11.445Z,4.55
2023-04-19T13:10:37.986Z,3.90
2023-04-19T13:13:04.468Z,4.43
2023-04-19T13:15:31.141Z,5.57
2023-04-19T13:17:57.669Z,5.05
2023-04-19T13:20:24.136Z,4.03
2023-04-19T13:22:50.675Z,4.95
2023-04-19T13:25:17.206Z,3.53
2023-04-19T13:27:43.799Z,4.03
2023-04-19T13:30:10.768Z,6.22
2023-04-19T13:32:37.545Z,6.55
2023-04-19T13:35:04.194Z,3.95
2023-04-19T13:37:30.660Z,6.70
2023-04-19T13:40:10.618Z,3.78
2023-04-19T13:42:43.525Z,4.25
2023-04-19T13:45:10.285Z,6.05
2023-04-19T13:47:36.999Z,5.47
2023-04-19T13:50:03.546Z,4.38
2023-04-19T13:52:29.939Z,5.13
2023-04-19T13:54:56.500Z,3.30
2023-04-19T13:57:23.010Z,7.68
2023-04-19T13:59:49.410Z,3.65
2023-04-19T14:02:16.188Z,8.13
2023-04-19T14:04:42.840Z,4.68
2023-04-19T14:07:09.860Z,3.72
2023-04-19T14:09:37.009Z,5.90
2023-04-19T14:12:04.468Z,4.38
2023-04-19T14:14:32.255Z,4.55
2023-04-19T14:16:59.031Z,2.83
2023-04-19T14:19:25.515Z,3.80
2023-04-19T14:21:51.948Z,5.00
2023-04-19T14:24:18.711Z,2.95
2023-04-19T14:26:45.365Z,3.65
2023-04-19T14:29:11.871Z,3.58
2023-04-19T14:31:38.436Z,4.90
2023-04-19T14:34:04.943Z,4.82
2023-04-19T14:36:31.482Z,3.90
2023-04-19T14:38:57.903Z,5.00
2023-04-19T14:41:24.687Z,3.92
2023-04-19T14:43:52.105Z,5.85
2023-04-19T14:46:18.705Z,3.67
2023-04-19T14:48:45.246Z,6.35
2023-04-19T14:51:11.731Z,5.07
2023-04-19T14:53:38.199Z,6.13
2023-04-19T14:56:05.888Z,6.05
2023-04-19T14:58:32.364Z,5.80
2023-04-19T15:00:59.494Z,3.80
2023-04-19T15:03:26.220Z,4.63
2023-04-19T15:05:53.017Z,6.65
2023-04-19T15:08:30.242Z,4.88
2023-04-19T15:10:57.330Z,5.15
2023-04-19T15:13:23.775Z,4.93
2023-04-19T15:15:50.259Z,4.75
2023-04-19T15:18:17.037Z,5.45
2023-04-19T15:20:43.444Z,6.60
2023-04-19T15:23:09.900Z,6.95
2023-04-19T15:25:36.366Z,4.45
2023-04-19T15:28:02.961Z,6.05
2023-04-19T15:30:29.368Z,4.93
2023-04-19T15:32:56.184Z,5.03
2023-04-19T15:35:22.797Z,5.93
2023-04-19T15:37:49.237Z,4.32
2023-04-19T15:40:17.061Z,4.50
2023-04-19T15:42:43.515Z,5.30
2023-04-19T15:45:10.310Z,7.25
2023-04-19T15:47:36.828Z,5.43
2023-04-19T15:50:04.604Z,6.00
2023-04-19T15:52:31.385Z,5.05
2023-04-19T15:54:57.810Z,5.60
2023-04-19T15:57:24.239Z,5.45
2023-04-19T15:59:50.669Z,5.35
2023-04-19T16:02:17.333Z,5.22
2023-04-19T16:04:47.152Z,6.35
2023-04-19T16:07:14.311Z,4.70
2023-04-19T16:09:40.711Z,4.68
2023-04-19T16:12:07.190Z,4.72
2023-04-19T16:14:33.649Z,5.82
2023-04-19T16:17:02.904Z,3.97
2023-04-19T16:19:29.398Z,5.35
2023-04-19T16:21:56.851Z,4.72
2023-04-19T16:24:23.284Z,5.40
2023-04-19T16:26:49.688Z,5.82
2023-04-19T16:29:16.490Z,4.45
2023-04-19T16:31:43.289Z,4.68
2023-04-19T16:34:09.815Z,6.40
2023-04-19T16:36:36.278Z,5.95
2023-04-19T16:39:02.811Z,6.00
2023-04-19T16:41:29.854Z,7.05
2023-04-19T16:43:56.492Z,3.42
2023-04-19T16:46:23.135Z,4.40
2023-04-19T16:48:49.597Z,7.32
2023-04-19T16:51:16.021Z,4.93
2023-04-19T16:53:43.577Z,5.60
2023-04-19T16:56:10.061Z,5.32
2023-04-19T16:58:36.588Z,3.72
2023-04-19T17:01:03.456Z,5.80
2023-04-19T17:03:33.065Z,5.65
2023-04-19T17:06:00.885Z,5.38
2023-04-19T17:08:27.336Z,4.70
2023-04-19T17:10:53.799Z,5.88
2023-04-19T17:13:20.275Z,5.40
2023-04-19T17:15:46.873Z,4.95
2023-04-19T17:18:13.425Z,4.70
2023-04-19T17:20:40.053Z,5.32
2023-04-19T17:23:06.783Z,5.75
2023-04-19T17:25:33.212Z,4.93
2023-04-19T17:27:59.696Z,5.20
2023-04-19T17:30:27.651Z,5.20
2023-04-19T17:32:54.074Z,4.72
2023-04-19T17:35:20.678Z,4.03
2023-04-19T17:37:47.415Z,5.78
2023-04-19T17:40:13.902Z,4.70
2023-04-19T17:42:40.340Z,4.72
2023-04-19T17:45:10.913Z,6.03
2023-04-19T17:47:38.515Z,4.38
2023-04-19T17:50:07.162Z,4.07
2023-04-19T17:52:34.191Z,6.47
2023-04-19T17:55:00.989Z,4.18
2023-04-19T17:57:29.086Z,4.55
2023-04-19T17:59:55.765Z,6.22
2023-04-19T18:02:22.992Z,5.28
2023-04-19T18:04:49.725Z,6.85
2023-04-19T18:07:16.174Z,5.00
2023-04-19T18:09:42.596Z,4.82
2023-04-19T18:12:09.107Z,5.68
2023-04-19T18:14:35.810Z,6.70
2023-04-19T18:17:03.096Z,6.60
2023-04-19T18:19:29.691Z,7.95
2023-04-19T18:21:56.424Z,8.23
2023-04-19T18:24:23.501Z,6.20
2023-04-19T18:26:50.184Z,6.47
2023-04-19T18:29:19.146Z,9.18
2023-04-19T18:31:45.643Z,6.75
2023-04-19T18:34:12.657Z,7.47
2023-04-19T18:36:39.247Z,7.63
2023-04-19T18:39:05.740Z,5.80
2023-04-19T18:41:32.226Z,6.57
2023-04-19T18:46:29.248Z,5.35
2023-04-19T18:48:55.772Z,7.82
2023-04-19T18:51:22.273Z,6.10
2023-04-19T18:53:49.607Z,6.50
2023-04-19T18:56:16.846Z,7.35
2023-04-19T18:58:43.471Z,5.20
2023-04-19T19:01:12.020Z,5.40
2023-04-19T19:04:00.603Z,5.53
2023-04-19T19:06:25.347Z,4.32
2023-04-19T19:08:51.883Z,5.47
2023-04-19T19:11:37.416Z,4.25
2023-04-19T19:14:04.727Z,5.60
2023-04-19T19:16:31.622Z,5.95
2023-04-19T19:18:58.116Z,5.65
2023-04-19T19:21:24.609Z,5.65
2023-04-19T19:23:53.404Z,8.50
2023-04-19T19:26:20.843Z,6.00
2023-04-19T19:28:47.426Z,6.78
2023-04-19T19:31:13.908Z,5.90
2023-04-19T19:33:40.906Z,6.53
2023-04-19T19:36:07.548Z,8.55
2023-04-19T19:38:37.005Z,5.25
2023-04-19T19:43:36.179Z,7.10
2023-04-19T19:46:02.857Z,4.95
2023-04-19T19:48:30.395Z,4.72
2023-04-19T19:51:28.636Z,5.10
2023-04-19T19:53:44.376Z,4.25
2023-04-19T19:56:18.292Z,6.93
2023-04-19T19:58:50.232Z,5.68
2023-04-19T20:01:18.081Z,5.38
2023-04-19T20:03:45.279Z,5.97
2023-04-19T20:06:57.132Z,5.97
2023-04-19T20:08:59.715Z,4.97
2023-04-19T20:11:26.339Z,4.70
2023-04-19T20:13:52.818Z,6.70
2023-04-19T20:16:19.621Z,4.55
2023-04-19T20:18:46.463Z,6.38
2023-04-19T20:21:12.970Z,5.22
2023-04-19T20:23:39.477Z,7.65
2023-04-19T20:26:05.928Z,4.30
2023-04-19T20:28:32.505Z,4.53
2023-04-19T20:30:58.890Z,5.57
2023-04-19T20:33:25.774Z,5.97
2023-04-19T20:35:53.510Z,6.43
2023-04-19T20:38:23.238Z,6.40
2023-04-19T20:40:49.646Z,11.15
2023-04-19T20:43:16.807Z,3.72
2023-04-19T20:45:43.305Z,5.18
2023-04-19T20:48:09.857Z,5.93
2023-04-19T20:50:36.318Z,5.25
2023-04-19T20:53:02.837Z,6.82
2023-04-19T20:55:29.277Z,5.57
2023-04-19T20:57:56.002Z,3.95
2023-04-19T21:00:22.457Z,6.57
2023-04-19T21:02:49.619Z,3.50
2023-04-19T21:05:16.243Z,4.22
2023-04-19T21:07:42.797Z,5.50
2023-04-19T21:10:11.268Z,5.90
2023-04-19T21:12:37.663Z,6.85
2023-04-19T21:15:04.958Z,7.78
2023-04-19T21:17:31.425Z,6.93
2023-04-19T21:19:57.837Z,6.10
2023-04-19T21:22:24.225Z,6.75
2023-04-19T21:24:50.753Z,7.63
2023-04-19T21:27:17.298Z,5.60
2023-04-19T21:29:43.812Z,5.65
2023-04-19T21:32:10.423Z,5.10
2023-04-19T21:34:38.209Z,4.03
2023-04-19T21:37:04.716Z,4.32
2023-04-19T21:39:31.219Z,7.03
2023-04-19T21:41:57.648Z,3.90
2023-04-19T21:44:24.112Z,6.68
2023-04-19T21:46:50.643Z,4.70
2023-04-19T21:49:17.349Z,5.15
2023-04-19T21:51:44.045Z,6.75
2023-04-19T21:54:10.806Z,4.75
2023-04-19T21:56:39.181Z,3.67
2023-04-19T21:59:05.648Z,5.03
2023-04-19T22:01:32.067Z,4.60
2023-04-19T22:03:58.544Z,4.60
2023-04-19T22:06:25.327Z,3.53
2023-04-19T22:08:51.740Z,4.85
2023-04-19T22:11:18.430Z,3.95
2023-04-19T22:13:45.002Z,4.38
2023-04-19T22:16:11.586Z,5.15
2023-04-19T22:18:38.212Z,4.72
2023-04-19T22:21:04.807Z,3.90
2023-04-19T22:23:31.279Z,4.43
2023-04-19T22:25:57.728Z,4.78
2023-04-19T22:28:24.165Z,4.07
2023-04-19T22:30:51.177Z,3.78
2023-04-19T22:33:18.849Z,3.55
2023-04-19T22:35:45.344Z,5.07
2023-04-19T22:38:11.797Z,4.03
2023-04-19T22:40:38.300Z,7.22
2023-04-19T22:43:04.733Z,3.97
2023-04-19T22:45:31.208Z,4.18
2023-04-19T22:47:57.718Z,5.25
2023-04-19T22:50:24.193Z,7.03
2023-04-19T22:52:50.874Z,5.10
2023-04-19T22:55:17.353Z,6.55
2023-04-19T22:57:44.012Z,3.63
2023-04-19T23:00:11.112Z,4.40
2023-04-19T23:02:38.469Z,3.88
2023-04-19T23:05:06.110Z,4.45
2023-04-19T23:07:33.206Z,5.93
2023-04-19T23:09:59.709Z,3.60
2023-04-19T23:12:26.155Z,5.45
2023-04-19T23:14:52.584Z,4.10
2023-04-19T23:17:19.811Z,3.95
2023-04-19T23:19:46.376Z,3.78
2023-04-19T23:22:12.804Z,3.78
2023-04-19T23:24:39.315Z,4.15
2023-04-19T23:27:05.782Z,2.88
2023-04-19T23:29:32.201Z,4.78
2023-04-19T23:31:58.666Z,4.38
2023-04-19T23:34:25.093Z,5.47
2023-04-19T23:36:51.765Z,5.78
2023-04-19T23:39:18.638Z,4.00
2023-04-19T23:41:45.635Z,4.00
2023-04-19T23:44:12.102Z,5.20
2023-04-19T23:46:38.684Z,4.47
2023-04-19T23:49:05.457Z,5.80
2023-04-19T23:51:32.850Z,6.32
2023-04-19T23:53:59.268Z,4.05
2023-04-19T23:56:25.878Z,4.65
2023-04-19T23:58:52.246Z,4.07
